createdAt,value
2022-12-24T00:01:36.233Z,15.52
2022-12-24T00:04:02.835Z,15.68
2022-12-24T00:06:30.257Z,15.85
2022-12-24T00:08:56.893Z,15.40
2022-12-24T00:11:23.460Z,16.05
2022-12-24T00:13:50.279Z,15.43
2022-12-24T00:16:16.986Z,15.73
2022-12-24T00:18:46.518Z,16.77
2022-12-24T00:21:15.077Z,16.00
2022-12-24T00:23:41.818Z,16.33
2022-12-24T00:26:08.623Z,13.85
2022-12-24T00:28:35.181Z,14.32
2022-12-24T00:31:08.335Z,13.57
2022-12-24T00:33:34.961Z,14.27
2022-12-24T00:36:01.484Z,13.88
2022-12-24T00:38:28.039Z,13.80
2022-12-24T00:41:01.725Z,13.85
2022-12-24T00:43:29.411Z,13.57
2022-12-24T00:45:56.459Z,13.43
2022-12-24T00:48:23.077Z,13.68
2022-12-24T00:50:50.354Z,11.90
2022-12-24T00:53:17.782Z,12.02
2022-12-24T00:55:44.390Z,12.88
2022-12-24T00:58:10.939Z,12.75
2022-12-24T01:00:37.442Z,12.77
2022-12-24T01:03:04.251Z,12.10
2022-12-24T01:05:30.923Z,12.00
2022-12-24T01:07:57.508Z,13.25
2022-12-24T01:10:24.029Z,12.88
2022-12-24T01:12:50.525Z,12.98
2022-12-24T01:15:17.129Z,13.18
2022-12-24T01:17:43.726Z,13.63
2022-12-24T01:20:14.204Z,12.95
2022-12-24T01:22:40.815Z,12.60
2022-12-24T01:25:07.674Z,12.75
2022-12-24T01:27:34.311Z,13.25
2022-12-24T01:30:00.895Z,12.05
2022-12-24T01:32:27.455Z,13.02
2022-12-24T01:34:54.011Z,13.63
2022-12-24T01:37:20.496Z,13.25
2022-12-24T01:39:47.072Z,11.90
2022-12-24T01:42:40.725Z,12.25
2022-12-24T01:45:35.296Z,12.50
2022-12-24T01:48:01.855Z,11.80
2022-12-24T01:50:28.905Z,13.40
2022-12-24T01:52:55.680Z,12.40
2022-12-24T01:55:22.257Z,11.70
2022-12-24T01:57:55.877Z,12.57
2022-12-24T02:00:22.489Z,11.88
2022-12-24T02:02:51.128Z,12.05
2022-12-24T02:05:29.255Z,12.45
2022-12-24T02:07:56.838Z,12.27
2022-12-24T02:10:23.369Z,12.65
2022-12-24T02:12:50.539Z,14.20
2022-12-24T02:15:19.007Z,13.43
2022-12-24T02:18:03.567Z,13.10
2022-12-24T02:20:51.183Z,13.70
2022-12-24T02:23:39.421Z,13.07
2022-12-24T02:26:18.362Z,13.50
2022-12-24T02:29:24.631Z,13.90
2022-12-24T02:32:02.668Z,14.30
2022-12-24T02:34:39.122Z,14.23
2022-12-24T02:37:23.124Z,13.48
2022-12-24T02:39:57.160Z,14.60
2022-12-24T02:42:27.593Z,14.98
2022-12-24T02:44:58.172Z,13.43
2022-12-24T02:47:26.902Z,15.43
2022-12-24T02:49:53.716Z,15.00
2022-12-24T02:52:39.519Z,14.77
2022-12-24T02:55:09.756Z,14.77
2022-12-24T02:58:07.084Z,15.67
2022-12-24T03:01:17.424Z,15.70
2022-12-24T03:04:39.254Z,16.05
2022-12-24T03:07:16.661Z,15.60
2022-12-24T03:10:20.892Z,16.83
2022-12-24T03:12:51.066Z,16.80
2022-12-24T03:15:21.117Z,16.90
2022-12-24T03:17:49.560Z,16.55
2022-12-24T03:20:21.220Z,17.33
2022-12-24T03:22:47.799Z,17.70
2022-12-24T03:25:14.540Z,16.45
2022-12-24T03:27:41.299Z,16.67
2022-12-24T03:30:13.432Z,16.27
2022-12-24T03:32:40.105Z,16.67
2022-12-24T03:35:07.397Z,17.33
2022-12-24T03:37:33.945Z,17.30
2022-12-24T03:40:00.570Z,17.60
2022-12-24T03:42:27.107Z,17.42
2022-12-24T03:44:53.739Z,16.95
2022-12-24T03:47:20.363Z,16.90
2022-12-24T03:49:46.937Z,15.85
2022-12-24T03:52:13.514Z,16.20
2022-12-24T03:54:40.072Z,16.73
2022-12-24T03:57:06.643Z,17.45
2022-12-24T03:59:33.220Z,18.50
2022-12-24T04:02:00.111Z,16.67
2022-12-24T04:04:26.862Z,17.48
2022-12-24T04:06:53.397Z,17.10
2022-12-24T04:09:19.949Z,17.50
2022-12-24T04:11:46.503Z,18.02
2022-12-24T04:14:13.078Z,17.42
2022-12-24T04:16:39.647Z,17.40
2022-12-24T04:19:06.253Z,18.85
2022-12-24T04:21:32.777Z,18.58
2022-12-24T04:23:59.344Z,17.42
2022-12-24T04:26:25.935Z,18.65
2022-12-24T04:28:53.154Z,17.73
2022-12-24T04:31:19.837Z,18.23
2022-12-24T04:33:46.628Z,17.50
2022-12-24T04:36:15.203Z,18.25
2022-12-24T04:38:41.774Z,18.65
2022-12-24T04:41:23.684Z,18.42
2022-12-24T04:43:52.630Z,18.10
2022-12-24T04:46:21.923Z,18.33
2022-12-24T04:48:50.186Z,18.65
2022-12-24T04:51:17.315Z,17.95
2022-12-24T04:53:44.684Z,19.30
2022-12-24T04:56:23.214Z,18.70
2022-12-24T04:58:50.327Z,18.50
2022-12-24T05:01:25.195Z,18.95
2022-12-24T05:03:52.296Z,19.92
2022-12-24T05:06:21.459Z,19.25
2022-12-24T05:08:48.279Z,19.13
2022-12-24T05:11:15.737Z,20.55
2022-12-24T05:13:47.397Z,19.65
2022-12-24T05:16:15.135Z,20.30
2022-12-24T05:18:41.804Z,19.70
2022-12-24T05:21:13.810Z,21.33
2022-12-24T05:23:59.138Z,18.60
2022-12-24T05:26:30.418Z,19.52
2022-12-24T05:28:58.705Z,20.95
2022-12-24T05:31:26.581Z,22.77
2022-12-24T05:33:54.759Z,21.58
2022-12-24T05:36:22.074Z,20.50
2022-12-24T05:38:48.639Z,22.02
2022-12-24T05:41:15.241Z,21.52
2022-12-24T05:43:41.802Z,21.50
2022-12-24T05:46:11.646Z,22.67
2022-12-24T05:48:38.233Z,21.30
2022-12-24T05:51:09.651Z,21.48
2022-12-24T05:53:36.484Z,21.95
2022-12-24T05:56:13.882Z,20.35
2022-12-24T05:58:41.233Z,20.75
2022-12-24T06:01:08.264Z,21.77
2022-12-24T06:03:35.247Z,21.63
2022-12-24T06:06:11.243Z,20.50
2022-12-24T06:08:38.370Z,20.08
2022-12-24T06:11:07.556Z,21.58
2022-12-24T06:13:34.446Z,21.40
2022-12-24T06:16:02.674Z,22.73
2022-12-24T06:18:30.381Z,21.83
2022-12-24T06:20:57.835Z,22.83
2022-12-24T06:23:24.738Z,21.58
2022-12-24T06:25:51.675Z,22.00
2022-12-24T06:28:18.755Z,21.23
2022-12-24T06:30:49.671Z,21.40
2022-12-24T06:33:16.924Z,21.35
2022-12-24T06:35:44.885Z,22.30
2022-12-24T06:38:11.449Z,20.88
2022-12-24T06:40:39.248Z,22.23
2022-12-24T06:43:05.974Z,21.80
2022-12-24T06:45:32.500Z,22.77
2022-12-24T06:47:59.394Z,21.27
2022-12-24T06:50:26.197Z,21.50
2022-12-24T06:52:52.941Z,19.98
2022-12-24T06:55:19.712Z,20.90
2022-12-24T06:57:46.217Z,22.08
2022-12-24T07:00:13.464Z,20.27
2022-12-24T07:02:41.209Z,22.90
2022-12-24T07:05:14.987Z,21.40
2022-12-24T07:07:43.593Z,20.80
2022-12-24T07:10:16.434Z,21.50
2022-12-24T07:12:43.207Z,20.75
2022-12-24T07:15:11.850Z,21.00
2022-12-24T07:17:38.924Z,22.80
2022-12-24T07:20:07.130Z,24.20
2022-12-24T07:22:33.744Z,24.70
2022-12-24T07:25:00.294Z,23.60
2022-12-24T07:27:26.818Z,22.42
2022-12-24T07:29:53.401Z,22.42
2022-12-24T07:32:20.536Z,21.85
2022-12-24T07:34:47.198Z,24.40
2022-12-24T07:37:14.222Z,23.25
2022-12-24T07:39:40.837Z,25.15
2022-12-24T07:42:08.672Z,22.92
2022-12-24T07:44:35.679Z,22.02
2022-12-24T07:47:02.274Z,24.60
2022-12-24T07:49:29.065Z,22.70
2022-12-24T07:51:55.749Z,22.27
2022-12-24T07:54:22.336Z,23.35
2022-12-24T07:56:49.113Z,25.02
2022-12-24T07:59:17.884Z,24.75
2022-12-24T08:01:45.645Z,23.85
2022-12-24T08:04:12.342Z,25.23
2022-12-24T08:06:39.030Z,26.92
2022-12-24T08:09:05.601Z,26.45
2022-12-24T08:11:32.181Z,25.08
2022-12-24T08:13:58.689Z,25.48
2022-12-24T08:16:25.319Z,24.65
2022-12-24T08:18:51.860Z,24.40
2022-12-24T08:21:18.395Z,26.85
2022-12-24T08:23:46.639Z,24.48
2022-12-24T08:26:13.147Z,25.98
2022-12-24T08:28:39.675Z,26.38
2022-12-24T08:31:06.720Z,27.02
2022-12-24T08:33:33.307Z,24.30
2022-12-24T08:36:01.203Z,24.92
2022-12-24T08:38:27.779Z,24.75
2022-12-24T08:40:55.057Z,22.88
2022-12-24T08:43:21.589Z,24.02
2022-12-24T08:45:51.668Z,23.92
2022-12-24T08:48:18.442Z,25.57
2022-12-24T08:50:45.714Z,23.88
2022-12-24T08:53:12.644Z,23.60
2022-12-24T08:55:39.638Z,23.15
2022-12-24T08:58:06.328Z,22.92
2022-12-24T09:00:32.977Z,22.25
2022-12-24T09:02:59.655Z,21.13
2022-12-24T09:05:26.559Z,22.55
2022-12-24T09:07:53.357Z,22.27
2022-12-24T09:10:20.122Z,22.67
2022-12-24T09:12:46.677Z,23.52
2022-12-24T09:15:15.751Z,22.02
2022-12-24T09:17:42.460Z,23.05
2022-12-24T09:20:10.054Z,22.80
2022-12-24T09:22:38.701Z,24.02
2022-12-24T09:25:10.778Z,23.98
2022-12-24T09:27:37.470Z,22.92
2022-12-24T09:30:06.066Z,24.30
2022-12-24T09:32:33.623Z,23.48
2022-12-24T09:35:00.343Z,24.75
2022-12-24T09:37:32.295Z,25.45
2022-12-24T09:39:58.871Z,23.45
2022-12-24T09:42:34.338Z,25.83
2022-12-24T09:45:10.399Z,24.70
2022-12-24T09:47:44.452Z,26.25
2022-12-24T09:50:32.237Z,25.92
2022-12-24T09:53:02.297Z,24.23
2022-12-24T09:55:32.967Z,24.80
2022-12-24T09:58:01.049Z,24.98
2022-12-24T10:00:33.946Z,24.45
2022-12-24T10:03:00.511Z,21.27
2022-12-24T10:05:38.467Z,22.45
2022-12-24T10:08:24.049Z,21.38
2022-12-24T10:10:54.753Z,20.02
2022-12-24T10:13:30.227Z,21.42
2022-12-24T10:16:10.168Z,20.83
2022-12-24T10:18:49.339Z,19.38
2022-12-24T10:21:33.620Z,17.15
2022-12-24T10:24:23.811Z,17.83
2022-12-24T10:27:02.545Z,16.40
2022-12-24T10:29:41.064Z,16.13
2022-12-24T10:32:07.474Z,17.65
2022-12-24T10:34:39.772Z,16.67
2022-12-24T10:37:06.618Z,15.35
2022-12-24T10:39:33.286Z,14.68
2022-12-24T10:42:00.697Z,15.15
2022-12-24T10:44:30.643Z,13.30
2022-12-24T10:46:57.291Z,10.82
2022-12-24T10:49:32.241Z,9.77
2022-12-24T10:52:18.091Z,11.77
2022-12-24T10:55:08.154Z,10.95
2022-12-24T10:57:35.112Z,9.50
2022-12-24T11:00:01.896Z,9.25
2022-12-24T11:02:35.419Z,9.38
2022-12-24T11:05:05.075Z,9.43
2022-12-24T11:07:31.900Z,9.05
2022-12-24T11:10:04.889Z,8.63
2022-12-24T11:12:34.118Z,8.88
2022-12-24T11:15:30.939Z,8.95
2022-12-24T11:18:05.974Z,8.90
2022-12-24T11:20:33.816Z,8.25
2022-12-24T11:23:02.081Z,8.60
2022-12-24T11:25:31.784Z,9.18
2022-12-24T11:28:12.944Z,9.70
2022-12-24T11:33:09.080Z,8.90
2022-12-24T11:35:42.173Z,9.48
2022-12-24T11:38:11.567Z,7.68
2022-12-24T11:41:02.694Z,8.88
2022-12-24T11:43:45.404Z,8.65
2022-12-24T11:46:41.488Z,9.18
2022-12-24T11:49:16.813Z,8.18
2022-12-24T11:52:00.541Z,8.65
2022-12-24T11:54:30.137Z,7.97
2022-12-24T11:56:58.517Z,8.65
2022-12-24T11:59:33.622Z,8.52
2022-12-24T12:02:05.044Z,9.48
2022-12-24T12:04:33.626Z,8.45
2022-12-24T12:07:03.604Z,8.13
2022-12-24T12:09:33.638Z,8.52
2022-12-24T12:12:15.681Z,7.68
2022-12-24T12:14:49.538Z,7.65
2022-12-24T12:17:22.004Z,7.47
2022-12-24T12:19:53.552Z,7.93
2022-12-24T12:22:37.623Z,8.05
2022-12-24T12:25:04.757Z,8.95
2022-12-24T12:27:35.968Z,8.30
2022-12-24T12:30:05.740Z,8.75
2022-12-24T12:32:47.583Z,7.75
2022-12-24T12:35:26.322Z,7.97
2022-12-24T12:37:56.622Z,7.85
2022-12-24T12:40:26.766Z,7.50
2022-12-24T12:43:05.168Z,7.80
2022-12-24T12:45:41.065Z,8.07
2022-12-24T12:48:14.263Z,7.60
2022-12-24T12:50:48.677Z,7.82
2022-12-24T12:53:24.176Z,8.48
2022-12-24T12:56:30.360Z,8.80
2022-12-24T12:59:04.608Z,9.18
2022-12-24T13:01:47.185Z,8.05
2022-12-24T13:04:41.784Z,8.55
2022-12-24T13:07:46.172Z,8.80
2022-12-24T13:10:35.956Z,10.02
2022-12-24T13:13:20.054Z,9.75
2022-12-24T13:16:02.150Z,7.88
2022-12-24T13:18:49.356Z,10.00
2022-12-24T13:21:18.544Z,7.20
2022-12-24T13:23:45.080Z,7.88
2022-12-24T13:26:13.402Z,8.48
2022-12-24T13:28:40.041Z,10.93
2022-12-24T13:31:24.289Z,8.93
2022-12-24T13:33:59.237Z,7.57
2022-12-24T13:36:26.121Z,7.53
2022-12-24T13:38:57.265Z,8.45
2022-12-24T13:41:41.325Z,7.88
2022-12-24T13:44:11.051Z,8.15
2022-12-24T13:47:32.098Z,8.38
2022-12-24T13:52:30.095Z,6.55
2022-12-24T13:54:59.282Z,7.50
2022-12-24T13:57:29.364Z,7.32
2022-12-24T14:00:22.577Z,11.15
2022-12-24T14:02:54.574Z,8.60
2022-12-24T14:05:28.803Z,8.82
2022-12-24T14:07:56.161Z,8.43
2022-12-24T14:10:26.265Z,8.07
2022-12-24T14:12:53.390Z,9.98
2022-12-24T14:15:45.907Z,9.52
2022-12-24T14:18:18.521Z,10.02
2022-12-24T14:20:49.384Z,9.07
2022-12-24T14:23:28.848Z,9.43
2022-12-24T14:25:57.267Z,8.68
2022-12-24T14:28:29.921Z,9.25
2022-12-24T14:31:04.579Z,9.38
2022-12-24T14:33:33.039Z,9.23
2022-12-24T14:36:00.148Z,10.20
2022-12-24T14:38:27.220Z,9.25
2022-12-24T14:41:09.391Z,9.27
2022-12-24T14:43:47.971Z,9.80
2022-12-24T14:46:25.055Z,9.30
2022-12-24T14:49:04.525Z,8.68
2022-12-24T14:52:18.422Z,12.85
2022-12-24T14:54:54.264Z,10.52
2022-12-24T14:57:23.443Z,10.25
2022-12-24T14:59:52.753Z,11.63
2022-12-24T15:02:42.390Z,9.35
2022-12-24T15:05:20.791Z,16.58
2022-12-24T15:07:57.134Z,10.15
2022-12-24T15:10:27.128Z,9.65
2022-12-24T15:12:55.234Z,9.60
2022-12-24T15:15:22.043Z,11.13
2022-12-24T15:17:48.715Z,10.40
2022-12-24T15:20:18.220Z,11.73
2022-12-24T15:22:46.731Z,12.32
2022-12-24T15:25:22.395Z,11.50
2022-12-24T15:27:48.949Z,13.35
2022-12-24T15:30:19.303Z,11.80
2022-12-24T15:32:46.187Z,13.52
2022-12-24T15:35:34.349Z,14.80
2022-12-24T15:38:02.440Z,13.20
2022-12-24T15:40:29.139Z,13.00
2022-12-24T15:42:55.777Z,15.52
2022-12-24T15:45:28.450Z,13.05
2022-12-24T15:48:21.227Z,12.23
2022-12-24T15:50:49.065Z,14.60
2022-12-24T15:53:37.209Z,14.35
2022-12-24T15:56:12.181Z,14.25
2022-12-24T15:58:43.380Z,15.60
2022-12-24T16:03:38.622Z,13.93
2022-12-24T16:06:11.200Z,14.50
2022-12-24T16:08:41.854Z,15.18
2022-12-24T16:11:11.365Z,15.45
2022-12-24T16:13:42.836Z,15.68
2022-12-24T16:16:12.012Z,17.52
2022-12-24T16:18:45.110Z,15.52
2022-12-24T16:21:19.931Z,17.65
2022-12-24T16:23:48.577Z,16.35
2022-12-24T16:26:15.085Z,16.05
2022-12-24T16:28:41.633Z,16.20
2022-12-24T16:31:08.177Z,16.38
2022-12-24T16:33:34.757Z,18.60
2022-12-24T16:36:01.384Z,16.92
2022-12-24T16:38:47.875Z,17.50
2022-12-24T16:41:14.365Z,19.20
2022-12-24T16:43:49.737Z,20.15
2022-12-24T16:46:16.246Z,20.92
2022-12-24T16:48:46.146Z,23.73
2022-12-24T16:51:12.964Z,23.23
2022-12-24T16:53:39.539Z,18.02
2022-12-24T16:56:06.314Z,17.85
2022-12-24T16:58:33.131Z,19.23
2022-12-24T17:01:06.421Z,17.70
2022-12-24T17:03:33.167Z,16.67
2022-12-24T17:06:04.566Z,20.23
2022-12-24T17:08:31.105Z,23.13
2022-12-24T17:10:57.631Z,22.70
2022-12-24T17:13:24.379Z,26.23
2022-12-24T17:15:50.998Z,23.13
2022-12-24T17:18:17.749Z,21.92
2022-12-24T17:20:44.358Z,22.13
2022-12-24T17:23:11.140Z,17.55
2022-12-24T17:25:37.746Z,16.88
2022-12-24T17:28:04.550Z,19.85
2022-12-24T17:30:31.200Z,19.77
2022-12-24T17:32:57.703Z,19.85
2022-12-24T17:35:24.223Z,19.67
2022-12-24T17:37:50.805Z,19.48
2022-12-24T17:40:18.071Z,15.93
2022-12-24T17:42:44.634Z,18.40
2022-12-24T17:45:11.320Z,18.75
2022-12-24T17:47:37.857Z,20.42
2022-12-24T17:50:05.316Z,19.73
2022-12-24T17:52:32.715Z,27.58
2022-12-24T17:54:59.618Z,23.55
2022-12-24T17:57:26.172Z,19.70
2022-12-24T17:59:52.869Z,22.73
2022-12-24T18:02:19.553Z,25.73
2022-12-24T18:04:46.225Z,21.90
2022-12-24T18:07:12.720Z,21.00
2022-12-24T18:09:39.836Z,19.50
2022-12-24T18:12:06.688Z,18.17
2022-12-24T18:14:33.304Z,19.23
2022-12-24T18:16:59.836Z,22.55
2022-12-24T18:19:26.407Z,20.55
2022-12-24T18:21:52.943Z,19.92
2022-12-24T18:24:19.531Z,17.90
2022-12-24T18:26:46.277Z,18.33
2022-12-24T18:29:13.106Z,17.23
2022-12-24T18:31:39.823Z,18.25
2022-12-24T18:34:08.699Z,19.73
2022-12-24T18:36:35.337Z,17.65
2022-12-24T18:39:01.978Z,15.65
2022-12-24T18:41:30.212Z,16.05
2022-12-24T18:43:57.431Z,16.73
2022-12-24T18:46:32.885Z,21.23
2022-12-24T18:49:00.345Z,20.73
2022-12-24T18:51:30.220Z,19.52
2022-12-24T18:53:56.867Z,18.48
2022-12-24T18:56:24.860Z,19.60
2022-12-24T18:58:56.753Z,17.58
2022-12-24T19:01:25.849Z,17.08
2022-12-24T19:03:52.750Z,14.70
2022-12-24T19:06:20.182Z,15.10
2022-12-24T19:08:56.909Z,15.02
2022-12-24T19:11:24.203Z,15.15
2022-12-24T19:13:51.703Z,14.65
2022-12-24T19:16:18.886Z,15.32
2022-12-24T19:18:45.405Z,14.25
2022-12-24T19:21:15.663Z,15.75
2022-12-24T19:23:42.288Z,15.93
2022-12-24T19:26:10.155Z,17.08
2022-12-24T19:28:36.728Z,21.88
2022-12-24T19:31:08.035Z,20.58
2022-12-24T19:33:42.347Z,20.98
2022-12-24T19:36:12.574Z,17.85
2022-12-24T19:38:39.170Z,16.98
2022-12-24T19:41:10.331Z,15.82
2022-12-24T19:46:04.454Z,14.68
2022-12-24T19:48:31.357Z,13.80
2022-12-24T19:51:05.495Z,13.65
2022-12-24T19:53:32.851Z,12.38
2022-12-24T19:55:59.590Z,11.85
2022-12-24T19:58:27.133Z,11.13
2022-12-24T20:00:53.953Z,12.38
2022-12-24T20:03:20.781Z,11.60
2022-12-24T20:05:47.466Z,11.43
2022-12-24T20:08:14.007Z,15.93
2022-12-24T20:10:41.578Z,10.68
2022-12-24T20:13:08.218Z,11.00
2022-12-24T20:15:42.520Z,11.18
2022-12-24T20:18:10.481Z,11.80
2022-12-24T20:20:37.504Z,11.18
2022-12-24T20:23:05.000Z,12.00
2022-12-24T20:25:34.837Z,11.70
2022-12-24T20:28:01.441Z,12.48
2022-12-24T20:30:28.082Z,12.02
2022-12-24T20:32:55.410Z,9.85
2022-12-24T20:35:22.739Z,10.55
2022-12-24T20:37:50.256Z,9.32
2022-12-24T20:40:16.914Z,11.40
2022-12-24T20:42:43.437Z,13.82
2022-12-24T20:45:10.014Z,11.23
2022-12-24T20:47:36.545Z,11.25
2022-12-24T20:50:03.296Z,11.00
2022-12-24T20:52:29.846Z,9.55
2022-12-24T20:54:57.009Z,10.85
2022-12-24T20:57:27.694Z,11.77
2022-12-24T20:59:56.621Z,11.07
2022-12-24T21:02:23.294Z,10.90
2022-12-24T21:04:49.916Z,10.65
2022-12-24T21:07:17.119Z,11.32
2022-12-24T21:09:43.753Z,10.00
2022-12-24T21:12:31.651Z,11.77
2022-12-24T21:14:58.204Z,14.40
2022-12-24T21:17:24.793Z,9.95
2022-12-24T21:19:51.447Z,10.38
2022-12-24T21:22:18.389Z,10.68
2022-12-24T21:24:45.033Z,11.13
2022-12-24T21:27:11.647Z,10.05
2022-12-24T21:29:38.467Z,11.27
2022-12-24T21:32:05.080Z,10.35
2022-12-24T21:34:31.760Z,9.65
2022-12-24T21:37:00.559Z,10.98
2022-12-24T21:39:27.309Z,15.23
2022-12-24T21:41:54.016Z,10.38
2022-12-24T21:44:20.574Z,11.40
2022-12-24T21:46:47.141Z,10.38
2022-12-24T21:49:33.701Z,11.30
2022-12-24T21:52:00.289Z,11.30
2022-12-24T21:54:28.398Z,10.23
2022-12-24T21:57:16.763Z,10.95
2022-12-24T21:59:43.903Z,10.80
2022-12-24T22:02:14.561Z,10.88
2022-12-24T22:04:41.986Z,9.63
2022-12-24T22:07:40.379Z,10.85
2022-12-24T22:10:26.373Z,10.05
2022-12-24T22:12:53.767Z,10.13
2022-12-24T22:15:20.802Z,10.75
2022-12-24T22:17:47.621Z,11.00
2022-12-24T22:20:14.456Z,12.45
2022-12-24T22:22:41.002Z,11.55
2022-12-24T22:25:07.774Z,12.60
2022-12-24T22:27:34.297Z,12.20
2022-12-24T22:30:00.868Z,11.98
2022-12-24T22:32:27.440Z,10.52
2022-12-24T22:34:54.096Z,11.50
2022-12-24T22:37:20.741Z,11.52
2022-12-24T22:39:48.280Z,11.48
2022-12-24T22:42:14.820Z,12.55
2022-12-24T22:44:41.422Z,10.82
2022-12-24T22:47:07.950Z,11.23
2022-12-24T22:49:36.068Z,10.57
2022-12-24T22:52:02.591Z,12.27
2022-12-24T22:54:29.136Z,11.93
2022-12-24T22:56:55.667Z,10.25
2022-12-24T22:59:22.230Z,12.15
2022-12-24T23:01:48.912Z,11.77
2022-12-24T23:04:15.531Z,12.02
2022-12-24T23:06:42.087Z,12.05
2022-12-24T23:09:11.541Z,11.93
2022-12-24T23:11:39.410Z,12.27
2022-12-24T23:14:24.459Z,12.70
2022-12-24T23:16:51.105Z,13.20
2022-12-24T23:19:17.642Z,12.15
2022-12-24T23:21:44.290Z,12.35
2022-12-24T23:24:11.138Z,13.13
2022-12-24T23:26:37.738Z,12.07
2022-12-24T23:29:04.242Z,12.07
2022-12-24T23:31:31.006Z,12.73
2022-12-24T23:33:57.602Z,14.02
2022-12-24T23:36:24.210Z,12.88
2022-12-24T23:38:53.096Z,12.40
2022-12-24T23:41:21.287Z,12.57
2022-12-24T23:43:47.821Z,13.88
2022-12-24T23:46:16.931Z,14.82
2022-12-24T23:48:43.545Z,15.23
2022-12-24T23:51:19.858Z,14.88
2022-12-24T23:53:46.560Z,33.85
2022-12-24T23:56:13.393Z,14.77
2022-12-24T23:58:41.147Z,11.77
